Terminal Aerodrome Forecast
Issued by NWS El Paso, TX

Home | Current Version | Previous Version | Text Only | Print | Product List | Glossary On
Versions: 1 2 3 4 5 6 7 8 9 10 11 12 13
000
FTUS44 KEPZ 070536
TAFELP
TAF
KELP 070536Z 0706/0806 27012KT P6SM SCT100 SCT250
     FM070700 05013G20KT P6SM BKN080 BKN150
     FM071200 09007KT P6SM SCT080 BKN200
     FM080000 15007KT P6SM BKN050 BKN090 OVC180=

USA.gov is the U.S. government's official web portal to all federal, state and local government web resources and services.